createdAt,value
2022-08-20T00:00:44.126Z,100417.66
2022-08-20T00:03:17.439Z,100412.41
2022-08-20T00:05:56.803Z,100412.03
2022-08-20T00:08:23.980Z,100407.00
2022-08-20T00:10:55.582Z,100420.34
2022-08-20T00:13:34.547Z,100428.06
2022-08-20T00:16:02.791Z,100422.41
2022-08-20T00:18:29.813Z,100424.53
2022-08-20T00:20:57.204Z,100420.13
2022-08-20T00:23:24.697Z,100425.97
2022-08-20T00:25:52.119Z,100427.66
2022-08-20T00:28:19.476Z,100427.44
2022-08-20T00:30:46.950Z,100424.09
2022-08-20T00:33:18.083Z,100435.59
2022-08-20T00:35:48.489Z,100427.44
2022-08-20T00:38:15.530Z,100431.00
2022-08-20T00:40:49.784Z,100431.19
2022-08-20T00:43:39.271Z,100444.59
2022-08-20T00:46:16.086Z,100443.72
2022-08-20T00:48:45.325Z,100444.97
2022-08-20T00:51:35.630Z,100446.66
2022-08-20T00:54:16.068Z,100454.38
2022-08-20T00:56:46.477Z,100448.28
2022-08-20T00:59:21.165Z,100440.16
2022-08-20T01:01:55.669Z,100441.81
2022-08-20T01:04:26.220Z,100450.84
2022-08-20T01:06:53.448Z,100449.97
2022-08-20T01:09:33.398Z,100456.25
2022-08-20T01:12:10.103Z,100448.94
2022-08-20T01:14:45.466Z,100458.50
2022-08-20T01:17:17.642Z,100451.22
2022-08-20T01:19:58.131Z,100449.13
2022-08-20T01:22:54.192Z,100457.88
2022-08-20T01:25:29.483Z,100459.56
2022-08-20T01:27:57.325Z,100458.31
2022-08-20T01:30:28.820Z,100463.34
2022-08-20T01:32:56.010Z,100458.31
2022-08-20T01:35:23.900Z,100459.97
2022-08-20T01:37:50.800Z,100457.25
2022-08-20T01:40:32.621Z,100465.41
2022-08-20T01:42:59.809Z,100467.91
2022-08-20T01:45:28.159Z,100468.13
2022-08-20T01:47:57.502Z,100472.50
2022-08-20T01:50:27.774Z,100476.25
2022-08-20T01:53:14.800Z,100476.72
2022-08-20T01:55:41.628Z,100479.63
2022-08-20T01:58:08.255Z,100475.19
2022-08-20T02:00:35.871Z,100481.25
2022-08-20T02:03:06.731Z,100477.97
2022-08-20T02:05:34.244Z,100472.31
2022-08-20T02:08:02.256Z,100472.94
2022-08-20T02:10:31.621Z,100480.47
2022-08-20T02:13:00.327Z,100480.47
2022-08-20T02:15:35.213Z,100477.13
2022-08-20T02:18:10.928Z,100481.91
2022-08-20T02:20:39.583Z,100482.53
2022-08-20T02:23:07.850Z,100478.81
2022-08-20T02:25:37.682Z,100473.78
2022-08-20T02:28:08.059Z,100474.22
2022-08-20T02:30:39.134Z,100467.75
2022-08-20T02:33:10.884Z,100479.22
2022-08-20T02:35:39.149Z,100469.59
2022-08-20T02:38:06.143Z,100478.78
2022-08-20T02:40:33.143Z,100470.03
2022-08-20T02:43:01.961Z,100469.59
2022-08-20T02:45:30.647Z,100470.88
2022-08-20T02:47:58.841Z,100467.72
2022-08-20T02:50:26.941Z,100469.81
2022-08-20T02:52:54.150Z,100462.28
2022-08-20T02:55:27.547Z,100466.03
2022-08-20T02:58:00.059Z,100465.84
2022-08-20T03:00:30.532Z,100474.59
2022-08-20T03:03:05.612Z,100472.09
2022-08-20T03:05:32.196Z,100471.69
2022-08-20T03:07:58.785Z,100465.63
2022-08-20T03:10:32.161Z,100473.56
2022-08-20T03:13:00.995Z,100471.28
2022-08-20T03:15:28.874Z,100476.28
2022-08-20T03:17:55.960Z,100485.66
2022-08-20T03:20:24.550Z,100473.56
2022-08-20T03:22:51.908Z,100466.44
2022-08-20T03:25:18.918Z,100471.25
2022-08-20T03:27:47.068Z,100474.59
2022-08-20T03:30:20.034Z,100472.13
2022-08-20T03:32:47.117Z,100477.97
2022-08-20T03:35:15.950Z,100483.81
2022-08-20T03:37:43.608Z,100480.88
2022-08-20T03:40:19.101Z,100490.22
2022-08-20T03:42:45.792Z,100502.34
2022-08-20T03:45:16.035Z,100501.09
2022-08-20T03:47:46.539Z,100494.00
2022-08-20T03:50:14.744Z,100491.31
2022-08-20T03:52:50.382Z,100495.69
2022-08-20T03:55:16.963Z,100492.31
2022-08-20T03:57:49.378Z,100490.03
2022-08-20T04:00:20.610Z,100498.16
2022-08-20T04:02:47.707Z,100499.59
2022-08-20T04:05:14.389Z,100494.38
2022-08-20T04:07:41.418Z,100507.97
2022-08-20T04:10:10.705Z,100495.88
2022-08-20T04:12:40.785Z,100502.75
2022-08-20T04:15:17.551Z,100497.13
2022-08-20T04:17:50.143Z,100497.13
2022-08-20T04:20:23.118Z,100496.28
2022-08-20T04:22:59.358Z,100498.16
2022-08-20T04:25:29.623Z,100495.00
2022-08-20T04:27:58.531Z,100489.16
2022-08-20T04:30:26.616Z,100497.09
2022-08-20T04:32:53.278Z,100506.91
2022-08-20T04:35:21.224Z,100505.00
2022-08-20T04:37:48.431Z,100510.88
2022-08-20T04:40:36.512Z,100502.31
2022-08-20T04:43:05.099Z,100504.56
2022-08-20T04:45:33.237Z,100498.66
2022-08-20T04:48:04.758Z,100509.13
2022-08-20T04:50:36.292Z,100513.53
2022-08-20T04:53:05.812Z,100514.19
2022-08-20T04:55:33.903Z,100513.78
2022-08-20T04:58:06.104Z,100520.88
2022-08-20T05:00:33.050Z,100527.31
2022-08-20T05:02:59.876Z,100527.94
2022-08-20T05:05:27.608Z,100535.84
2022-08-20T05:07:55.154Z,100545.09
2022-08-20T05:10:23.492Z,100540.53
2022-08-20T05:12:56.667Z,100548.00
2022-08-20T05:15:24.783Z,100549.69
2022-08-20T05:17:56.584Z,100550.97
2022-08-20T05:20:23.365Z,100540.94
2022-08-20T05:22:51.436Z,100547.91
2022-08-20T05:25:18.155Z,100547.63
2022-08-20T05:27:47.751Z,100547.66
2022-08-20T05:30:14.824Z,100545.94
2022-08-20T05:32:44.463Z,100543.44
2022-08-20T05:35:11.884Z,100537.00
2022-08-20T05:37:41.160Z,100541.97
2022-08-20T05:40:11.144Z,100543.06
2022-08-20T05:42:38.751Z,100548.06
2022-08-20T05:45:11.266Z,100548.22
2022-08-20T05:47:42.766Z,100542.84
2022-08-20T05:50:11.288Z,100545.38
2022-08-20T05:52:47.358Z,100549.78
2022-08-20T05:55:14.044Z,100551.03
2022-08-20T05:57:41.129Z,100549.34
2022-08-20T06:00:11.556Z,100554.34
2022-08-20T06:02:57.552Z,100555.63
2022-08-20T06:05:24.762Z,100553.09
2022-08-20T06:07:52.824Z,100552.69
2022-08-20T06:10:21.475Z,100553.09
2022-08-20T06:12:48.042Z,100562.69
2022-08-20T06:15:14.688Z,100551.81
2022-08-20T06:17:41.316Z,100557.25
2022-08-20T06:20:09.894Z,100555.75
2022-08-20T06:22:38.176Z,100560.59
2022-08-20T06:25:07.472Z,100561.44
2022-08-20T06:27:38.696Z,100562.69
2022-08-20T06:30:06.601Z,100554.34
2022-08-20T06:32:33.600Z,100558.31
2022-08-20T06:35:02.183Z,100549.53
2022-08-20T06:37:32.214Z,100544.75
2022-08-20T06:40:18.169Z,100543.06
2022-08-20T06:42:48.540Z,100541.41
2022-08-20T06:45:24.914Z,100541.63
2022-08-20T06:47:53.363Z,100551.44
2022-08-20T06:50:23.292Z,100548.25
2022-08-20T06:52:51.889Z,100550.72
2022-08-20T06:55:19.423Z,100544.66
2022-08-20T06:57:47.773Z,100544.22
2022-08-20T07:00:19.037Z,100545.13
2022-08-20T07:02:48.136Z,100546.25
2022-08-20T07:05:16.290Z,100546.41
2022-08-20T07:07:49.378Z,100548.94
2022-08-20T07:10:19.501Z,100556.66
2022-08-20T07:12:46.919Z,100563.81
2022-08-20T07:15:15.008Z,100565.22
2022-08-20T07:17:42.170Z,100561.13
2022-08-20T07:20:15.534Z,100563.38
2022-08-20T07:22:43.349Z,100565.41
2022-08-20T07:25:12.556Z,100567.78
2022-08-20T07:27:39.740Z,100562.31
2022-08-20T07:30:28.231Z,100565.69
2022-08-20T07:32:55.593Z,100568.50
2022-08-20T07:35:22.196Z,100570.38
2022-08-20T07:37:50.349Z,100577.28
2022-08-20T07:40:25.689Z,100581.81
2022-08-20T07:42:58.058Z,100582.66
2022-08-20T07:45:25.548Z,100578.78
2022-08-20T07:47:53.587Z,100581.97
2022-08-20T07:50:23.875Z,100583.03
2022-08-20T07:52:54.194Z,100584.31
2022-08-20T07:55:22.031Z,100590.22
2022-08-20T07:57:50.205Z,100589.03
2022-08-20T08:00:20.412Z,100590.72
2022-08-20T08:02:47.054Z,100594.38
2022-08-20T08:05:14.459Z,100595.09
2022-08-20T08:07:43.095Z,100598.22
2022-08-20T08:10:14.080Z,100599.38
2022-08-20T08:12:47.606Z,100604.78
2022-08-20T08:15:20.241Z,100608.88
2022-08-20T08:17:48.715Z,100605.56
2022-08-20T08:20:16.042Z,100606.75
2022-08-20T08:22:44.129Z,100619.50
2022-08-20T08:25:12.919Z,100615.53
2022-08-20T08:27:40.329Z,100616.59
2022-08-20T08:30:08.860Z,100614.97
2022-08-20T08:32:37.034Z,100624.13
2022-08-20T08:35:07.476Z,100614.44
2022-08-20T08:37:34.344Z,100619.00
2022-08-20T08:40:01.400Z,100618.06
2022-08-20T08:42:39.959Z,100610.47
2022-08-20T08:45:10.685Z,100607.47
2022-08-20T08:47:39.059Z,100612.75
2022-08-20T08:50:09.867Z,100605.72
2022-08-20T08:52:42.894Z,100608.16
2022-08-20T08:55:18.656Z,100612.47
2022-08-20T08:57:47.535Z,100621.09
2022-08-20T09:00:18.163Z,100620.16
2022-08-20T09:03:19.449Z,100625.66
2022-08-20T09:05:52.205Z,100631.88
2022-08-20T09:08:25.794Z,100633.00
2022-08-20T09:10:52.411Z,100631.06
2022-08-20T09:13:19.268Z,100629.81
2022-08-20T09:15:46.243Z,100630.28
2022-08-20T09:18:12.800Z,100639.59
2022-08-20T09:20:39.348Z,100641.19
2022-08-20T09:23:06.785Z,100637.47
2022-08-20T09:25:33.668Z,100644.38
2022-08-20T09:28:00.289Z,100639.88
2022-08-20T09:30:26.929Z,100635.50
2022-08-20T09:32:53.840Z,100643.84
2022-08-20T09:35:20.481Z,100637.31
2022-08-20T09:37:50.109Z,100642.19
2022-08-20T09:40:20.987Z,100639.91
2022-08-20T09:42:49.407Z,100631.41
2022-08-20T09:45:16.035Z,100628.28
2022-08-20T09:47:53.030Z,100631.97
2022-08-20T09:50:28.496Z,100637.06
2022-08-20T09:52:57.627Z,100638.25
2022-08-20T09:55:45.107Z,100642.22
2022-08-20T09:58:20.872Z,100647.19
2022-08-20T10:00:47.800Z,100642.47
2022-08-20T10:03:14.483Z,100644.78
2022-08-20T10:05:41.136Z,100645.22
2022-08-20T10:08:09.743Z,100641.59
2022-08-20T10:10:36.619Z,100640.06
2022-08-20T10:13:03.480Z,100636.50
2022-08-20T10:15:31.085Z,100637.69
2022-08-20T10:17:57.968Z,100632.94
2022-08-20T10:20:25.654Z,100642.53
2022-08-20T10:22:52.233Z,100640.06
2022-08-20T10:25:19.524Z,100637.63
2022-08-20T10:27:46.081Z,100636.25
2022-08-20T10:30:13.096Z,100643.56
2022-08-20T10:32:40.031Z,100642.88
2022-08-20T10:35:06.981Z,100646.03
2022-08-20T10:37:35.015Z,100642.84
2022-08-20T10:40:01.868Z,100646.97
2022-08-20T10:42:28.476Z,100637.75
2022-08-20T10:44:55.411Z,100639.56
2022-08-20T10:47:25.129Z,100636.41
2022-08-20T10:49:53.457Z,100653.31
2022-08-20T10:52:20.630Z,100649.91
2022-08-20T10:54:47.739Z,100646.91
2022-08-20T10:57:24.629Z,100649.94
2022-08-20T10:59:53.147Z,100658.25
2022-08-20T11:02:21.284Z,100647.16
2022-08-20T11:04:49.578Z,100640.13
2022-08-20T11:07:55.085Z,100654.09
2022-08-20T11:10:13.998Z,100658.25
2022-08-20T11:12:40.979Z,100653.25
2022-08-20T11:15:10.893Z,100655.97
2022-08-20T11:17:41.407Z,100655.81
2022-08-20T11:20:09.300Z,100659.66
2022-08-20T11:22:37.334Z,100657.63
2022-08-20T11:25:05.643Z,100653.66
2022-08-20T11:27:40.679Z,100648.47
2022-08-20T11:30:11.715Z,100662.13
2022-08-20T11:32:38.447Z,100661.97
2022-08-20T11:35:24.577Z,100658.50
2022-08-20T11:37:54.436Z,100664.31
2022-08-20T11:40:22.948Z,100667.72
2022-08-20T11:43:13.215Z,100661.19
2022-08-20T11:45:37.572Z,100663.69
2022-08-20T11:48:05.412Z,100656.31
2022-08-20T11:50:32.404Z,100665.13
2022-08-20T11:52:59.217Z,100654.75
2022-08-20T11:55:29.509Z,100658.38
2022-08-20T11:57:59.957Z,100660.50
2022-08-20T12:00:31.969Z,100656.72
2022-08-20T12:03:05.591Z,100654.28
2022-08-20T12:05:36.973Z,100652.63
2022-08-20T12:08:04.688Z,100657.34
2022-08-20T12:10:32.275Z,100652.16
2022-08-20T12:12:59.286Z,100657.91
2022-08-20T12:15:27.525Z,100657.41
2022-08-20T12:17:55.214Z,100655.47
2022-08-20T12:20:23.041Z,100658.72
2022-08-20T12:22:49.887Z,100666.19
2022-08-20T12:25:16.521Z,100667.75
2022-08-20T12:27:43.085Z,100666.41
2022-08-20T12:30:18.075Z,100665.09
2022-08-20T12:32:44.750Z,100667.63
2022-08-20T12:35:12.297Z,100664.75
2022-08-20T12:37:39.505Z,100675.25
2022-08-20T12:40:14.169Z,100667.59
2022-08-20T12:42:41.183Z,100666.06
2022-08-20T12:45:08.511Z,100668.34
2022-08-20T12:47:41.263Z,100667.81
2022-08-20T12:50:20.994Z,100672.28
2022-08-20T12:52:48.550Z,100682.41
2022-08-20T12:55:18.352Z,100681.59
2022-08-20T12:57:51.541Z,100675.50
2022-08-20T13:00:22.725Z,100675.41
2022-08-20T13:02:56.113Z,100666.44
2022-08-20T13:05:23.658Z,100664.53
2022-08-20T13:07:50.862Z,100665.19
2022-08-20T13:10:44.091Z,100655.25
2022-08-20T13:13:20.230Z,100657.69
2022-08-20T13:15:48.770Z,100668.13
2022-08-20T13:18:15.436Z,100663.34
2022-08-20T13:20:44.885Z,100662.59
2022-08-20T13:23:11.545Z,100660.19
2022-08-20T13:25:38.094Z,100664.50
2022-08-20T13:28:05.029Z,100665.50
2022-08-20T13:30:35.066Z,100662.09
2022-08-20T13:33:01.665Z,100655.78
2022-08-20T13:35:28.344Z,100646.66
2022-08-20T13:37:54.951Z,100662.06
2022-08-20T13:40:21.681Z,100652.03
2022-08-20T13:42:48.395Z,100660.97
2022-08-20T13:45:15.472Z,100654.03
2022-08-20T13:47:42.988Z,100649.03
2022-08-20T13:50:15.244Z,100647.22
2022-08-20T13:52:43.178Z,100648.94
2022-08-20T13:55:11.562Z,100641.66
2022-08-20T13:57:39.212Z,100641.88
2022-08-20T14:00:10.373Z,100636.91
2022-08-20T14:02:37.582Z,100637.97
2022-08-20T14:05:04.391Z,100628.88
2022-08-20T14:07:32.711Z,100639.97
2022-08-20T14:10:03.213Z,100636.75
2022-08-20T14:12:30.675Z,100638.00
2022-08-20T14:14:57.968Z,100643.50
2022-08-20T14:17:30.842Z,100647.81
2022-08-20T14:20:01.646Z,100634.75
2022-08-20T14:22:29.807Z,100644.59
2022-08-20T14:24:56.665Z,100642.63
2022-08-20T14:27:27.816Z,100638.41
2022-08-20T14:29:58.062Z,100636.16
2022-08-20T14:32:24.700Z,100636.09
2022-08-20T14:34:51.463Z,100637.50
2022-08-20T14:37:22.512Z,100631.88
2022-08-20T14:39:51.994Z,100638.09
2022-08-20T14:42:19.000Z,100641.84
2022-08-20T14:44:45.736Z,100633.63
2022-08-20T14:47:24.954Z,100639.75
2022-08-20T14:49:54.111Z,100635.53
2022-08-20T14:52:22.490Z,100637.81
2022-08-20T14:54:51.028Z,100636.72
2022-08-20T14:57:19.754Z,100637.63
2022-08-20T14:59:47.538Z,100636.00
2022-08-20T15:02:15.814Z,100637.63
2022-08-20T15:04:43.647Z,100639.06
2022-08-20T15:07:27.033Z,100642.50
2022-08-20T15:09:54.658Z,100638.34
2022-08-20T15:12:21.914Z,100633.38
2022-08-20T15:14:49.058Z,100638.75
2022-08-20T15:17:21.284Z,100644.31
2022-08-20T15:19:48.866Z,100641.44
2022-08-20T15:22:15.969Z,100644.47
2022-08-20T15:24:42.676Z,100640.38
2022-08-20T15:27:13.344Z,100639.88
2022-08-20T15:29:40.511Z,100639.59
2022-08-20T15:32:08.466Z,100639.75
2022-08-20T15:34:40.056Z,100631.31
2022-08-20T15:37:25.543Z,100638.00
2022-08-20T15:39:52.834Z,100636.47
2022-08-20T15:42:20.827Z,100638.00
2022-08-20T15:44:48.086Z,100642.69
2022-08-20T15:47:26.860Z,100650.88
2022-08-20T15:50:02.442Z,100650.28
2022-08-20T15:52:41.845Z,100655.34
2022-08-20T15:55:13.942Z,100648.59
2022-08-20T15:58:28.692Z,100654.66
2022-08-20T16:01:31.646Z,100662.28
2022-08-20T16:04:27.970Z,100655.13
2022-08-20T16:07:00.736Z,100667.38
2022-08-20T16:09:45.796Z,100669.06
2022-08-20T16:12:21.488Z,100664.19
2022-08-20T16:14:56.903Z,100663.38
2022-08-20T16:17:39.091Z,100674.38
2022-08-20T16:20:22.127Z,100671.75
2022-08-20T16:22:49.348Z,100665.13
2022-08-20T16:25:22.648Z,100667.38
2022-08-20T16:28:23.922Z,100668.41
2022-08-20T16:30:59.028Z,100675.25
2022-08-20T16:33:46.472Z,100674.22
2022-08-20T16:37:03.160Z,100680.19
2022-08-20T16:39:54.373Z,100677.91
2022-08-20T16:42:24.443Z,100673.47
2022-08-20T16:44:54.058Z,100677.09
2022-08-20T16:47:29.391Z,100685.25
2022-08-20T16:50:06.757Z,100682.56
2022-08-20T16:52:33.619Z,100680.22
2022-08-20T16:55:00.223Z,100690.47
2022-08-20T16:57:28.238Z,100679.91
2022-08-20T17:00:05.112Z,100680.94
2022-08-20T17:02:31.928Z,100689.34
2022-08-20T17:05:01.400Z,100682.31
2022-08-20T17:07:44.889Z,100686.28
2022-08-20T17:10:20.899Z,100677.34
2022-08-20T17:13:20.950Z,100680.34
2022-08-20T17:16:00.054Z,100692.41
2022-08-20T17:18:33.672Z,100692.69
2022-08-20T17:21:25.944Z,100690.50
2022-08-20T17:24:06.438Z,100686.06
2022-08-20T17:27:10.540Z,100694.09
2022-08-20T17:29:49.796Z,100701.84
2022-08-20T17:32:21.290Z,100702.03
2022-08-20T17:34:50.804Z,100710.91
2022-08-20T17:37:25.206Z,100717.59
2022-08-20T17:39:56.236Z,100707.69
2022-08-20T17:42:26.097Z,100709.78
2022-08-20T17:45:12.760Z,100703.25
2022-08-20T17:47:41.234Z,100713.94
2022-08-20T17:50:21.032Z,100715.22
2022-08-20T17:52:55.930Z,100720.22
2022-08-20T17:55:23.506Z,100715.41
2022-08-20T17:58:00.647Z,100718.09
2022-08-20T18:00:28.597Z,100719.78
2022-08-20T18:03:00.655Z,100711.44
2022-08-20T18:05:31.228Z,100724.16
2022-08-20T18:08:30.666Z,100713.31
2022-08-20T18:11:13.765Z,100718.13
2022-08-20T18:14:04.568Z,100718.94
2022-08-20T18:17:00.757Z,100720.44
2022-08-20T18:19:54.704Z,100724.41
2022-08-20T18:22:28.709Z,100717.09
2022-08-20T18:25:36.543Z,100727.13
2022-08-20T18:28:12.701Z,100730.25
2022-08-20T18:31:08.785Z,100744.88
2022-08-20T18:33:39.142Z,100734.00
2022-08-20T18:36:24.440Z,100738.56
2022-08-20T18:39:11.529Z,100732.69
2022-08-20T18:41:40.511Z,100735.63
2022-08-20T18:44:12.122Z,100738.56
2022-08-20T18:46:53.686Z,100742.09
2022-08-20T18:49:47.270Z,100744.81
2022-08-20T18:52:26.175Z,100746.22
2022-08-20T18:54:56.383Z,100746.25
2022-08-20T18:57:40.577Z,100753.13
2022-08-20T19:00:17.705Z,100747.06
2022-08-20T19:02:56.720Z,100751.22
2022-08-20T19:05:31.812Z,100752.69
2022-08-20T19:08:02.404Z,100754.50
2022-08-20T19:10:37.743Z,100748.00
2022-08-20T19:13:16.372Z,100746.69
2022-08-20T19:15:47.204Z,100748.13
2022-08-20T19:18:37.755Z,100749.63
2022-08-20T19:21:04.801Z,100758.72
2022-08-20T19:23:49.015Z,100759.09
2022-08-20T19:26:25.655Z,100758.72
2022-08-20T19:28:57.312Z,100762.78
2022-08-20T19:31:27.108Z,100760.09
2022-08-20T19:34:22.844Z,100762.34
2022-08-20T19:36:55.542Z,100762.34
2022-08-20T19:39:25.777Z,100769.59
2022-08-20T19:42:00.816Z,100766.19
2022-08-20T19:44:41.515Z,100769.03
2022-08-20T19:47:20.686Z,100770.47
2022-08-20T19:50:15.367Z,100774.56
2022-08-20T19:52:55.366Z,100776.53
2022-08-20T19:55:27.784Z,100770.75
2022-08-20T19:57:58.144Z,100769.69
2022-08-20T20:00:28.583Z,100763.22
2022-08-20T20:02:56.320Z,100764.88
2022-08-20T20:05:23.351Z,100766.53
2022-08-20T20:07:56.983Z,100764.88
2022-08-20T20:10:36.274Z,100760.84
2022-08-20T20:13:09.105Z,100760.03
2022-08-20T20:15:38.419Z,100757.44
2022-08-20T20:18:06.647Z,100757.63
2022-08-20T20:20:37.886Z,100766.34
2022-08-20T20:23:38.539Z,100765.88
2022-08-20T20:26:17.300Z,100771.59
2022-08-20T20:28:48.715Z,100766.03
2022-08-20T20:31:28.356Z,100764.19
2022-08-20T20:34:09.551Z,100765.50
2022-08-20T20:36:41.195Z,100757.47
2022-08-20T20:39:24.285Z,100766.31
2022-08-20T20:41:53.315Z,100766.25
2022-08-20T20:44:24.256Z,100764.28
2022-08-20T20:46:57.333Z,100762.69
2022-08-20T20:49:30.626Z,100755.59
2022-08-20T20:52:17.242Z,100760.28
2022-08-20T20:54:45.751Z,100764.00
2022-08-20T20:57:15.659Z,100763.44
2022-08-20T20:59:42.463Z,100760.63
2022-08-20T21:02:09.465Z,100764.38
2022-08-20T21:04:38.534Z,100767.81
2022-08-20T21:07:10.600Z,100770.44
2022-08-20T21:09:38.851Z,100773.22
2022-08-20T21:12:06.506Z,100772.66
2022-08-20T21:14:34.221Z,100767.88
2022-08-20T21:17:03.479Z,100770.69
2022-08-20T21:19:30.327Z,100771.34
2022-08-20T21:21:57.052Z,100772.34
2022-08-20T21:24:24.028Z,100770.69
2022-08-20T21:26:51.758Z,100765.44
2022-08-20T21:29:29.250Z,100778.63
2022-08-20T21:31:59.390Z,100775.97
2022-08-20T21:34:26.618Z,100776.16
2022-08-20T21:36:53.408Z,100775.47
2022-08-20T21:39:21.302Z,100775.13
2022-08-20T21:41:48.266Z,100777.88
2022-08-20T21:44:25.806Z,100775.84
2022-08-20T21:46:53.702Z,100778.94
2022-08-20T21:49:21.260Z,100778.81
2022-08-20T21:51:49.228Z,100776.47
2022-08-20T21:54:17.151Z,100775.66
2022-08-20T21:56:48.290Z,100775.03
2022-08-20T21:59:16.399Z,100779.50
2022-08-20T22:01:43.329Z,100776.59
2022-08-20T22:04:10.166Z,100769.59
2022-08-20T22:06:37.217Z,100769.03
2022-08-20T22:09:04.416Z,100770.31
2022-08-20T22:11:31.264Z,100773.69
2022-08-20T22:13:57.815Z,100767.75
2022-08-20T22:16:24.627Z,100769.00
2022-08-20T22:18:51.678Z,100765.53
2022-08-20T22:21:24.908Z,100775.13
2022-08-20T22:23:52.084Z,100766.72
2022-08-20T22:26:20.232Z,100766.03
2022-08-20T22:28:50.928Z,100766.41
2022-08-20T22:31:20.728Z,100763.31
2022-08-20T22:33:47.467Z,100766.84
2022-08-20T22:36:14.247Z,100765.88
2022-08-20T22:38:41.154Z,100769.50
2022-08-20T22:41:09.913Z,100767.94
2022-08-20T22:43:36.799Z,100773.31
2022-08-20T22:46:15.062Z,100773.31
2022-08-20T22:48:42.915Z,100768.97
2022-08-20T22:51:14.408Z,100764.13
2022-08-20T22:53:45.361Z,100761.75
2022-08-20T22:56:19.665Z,100758.56
2022-08-20T22:58:46.634Z,100759.53
2022-08-20T23:01:17.724Z,100756.88
2022-08-20T23:03:44.715Z,100758.94
2022-08-20T23:06:12.630Z,100754.53
2022-08-20T23:08:40.335Z,100752.19
2022-08-20T23:11:07.141Z,100747.84
2022-08-20T23:13:34.248Z,100759.28
2022-08-20T23:16:01.124Z,100751.56
2022-08-20T23:18:27.718Z,100747.38
2022-08-20T23:20:57.037Z,100752.91
2022-08-20T23:23:25.983Z,100745.13
2022-08-20T23:25:53.661Z,100746.81
2022-08-20T23:28:22.829Z,100747.50
2022-08-20T23:30:49.556Z,100748.13
2022-08-20T23:33:17.169Z,100746.13
2022-08-20T23:35:45.084Z,100740.75
2022-08-20T23:38:12.399Z,100744.81
2022-08-20T23:40:39.930Z,100747.78
2022-08-20T23:43:06.778Z,100742.75
2022-08-20T23:45:34.387Z,100745.44
2022-08-20T23:48:06.477Z,100739.88
2022-08-20T23:50:33.526Z,100730.28
2022-08-20T23:53:00.092Z,100731.81
2022-08-20T23:55:26.660Z,100729.28
2022-08-20T23:57:53.445Z,100723.91
